NUE weather

Nuremberg Airport
Nuremberg, Bavaria, Germany

Public forecast

Using degrees Celsius for public forecast. Weather courtesy of forecast.io.

METAR (pilot weather report)

Retrieved 2019/03/23 14:20 UTC (16 minutes ago):

EDDN 231420Z 28005KT 240V320 CAVOK 18/03 Q1026 NOSIG

TAF (pilot weather forecast)

Retrieved 2019/03/23 12:27 UTC (2 hours ago):

TAF EDDN 231100Z 2312/2412 29005KT CAVOK BECMG 2318/2320 VRB03KT TEMPO 2321/2324 01005KT PROB30 TEMPO 2404/2407 BKN013 BECMG 2409/2411 29006KT